sensor_id;sensor_type;location;lat;lon;timestamp;P1;durP1;ratioP1;P2;durP2;ratioP2
64571;SDS011;51155;51.984;21.208;2023-02-03T00:02:04;2.10;;;1.10;;
64571;SDS011;51155;51.984;21.208;2023-02-03T00:04:36;1.60;;;0.80;;
64571;SDS011;51155;51.984;21.208;2023-02-03T00:07:09;1.70;;;1.10;;
64571;SDS011;51155;51.984;21.208;2023-02-03T00:09:43;2.50;;;1.00;;
64571;SDS011;51155;51.984;21.208;2023-02-03T00:12:15;3.20;;;1.30;;
64571;SDS011;51155;51.984;21.208;2023-02-03T00:14:47;1.50;;;1.10;;
64571;SDS011;51155;51.984;21.208;2023-02-03T00:17:18;1.80;;;1.20;;
64571;SDS011;51155;51.984;21.208;2023-02-03T00:19:50;2.20;;;1.10;;
64571;SDS011;51155;51.984;21.208;2023-02-03T00:22:22;2.20;;;1.20;;
64571;SDS011;51155;51.984;21.208;2023-02-03T00:24:54;2.30;;;0.90;;
64571;SDS011;51155;51.984;21.208;2023-02-03T00:27:26;2.80;;;0.90;;
64571;SDS011;51155;51.984;21.208;2023-02-03T00:29:58;3.00;;;1.10;;
64571;SDS011;51155;51.984;21.208;2023-02-03T00:32:30;1.20;;;0.80;;
64571;SDS011;51155;51.984;21.208;2023-02-03T00:35:03;2.30;;;1.00;;
64571;SDS011;51155;51.984;21.208;2023-02-03T00:37:35;1.90;;;1.10;;
64571;SDS011;51155;51.984;21.208;2023-02-03T00:40:07;2.40;;;1.40;;
64571;SDS011;51155;51.984;21.208;2023-02-03T00:42:39;1.80;;;1.10;;
64571;SDS011;51155;51.984;21.208;2023-02-03T00:45:11;2.00;;;1.00;;
64571;SDS011;51155;51.984;21.208;2023-02-03T00:47:43;2.30;;;1.10;;
64571;SDS011;51155;51.984;21.208;2023-02-03T00:50:17;1.80;;;1.00;;
64571;SDS011;51155;51.984;21.208;2023-02-03T00:52:49;1.30;;;0.90;;
64571;SDS011;51155;51.984;21.208;2023-02-03T00:55:21;2.30;;;1.00;;
64571;SDS011;51155;51.984;21.208;2023-02-03T00:57:53;2.20;;;1.00;;
64571;SDS011;51155;51.984;21.208;2023-02-03T01:00:24;2.10;;;1.20;;
64571;SDS011;51155;51.984;21.208;2023-02-03T01:02:58;4.00;;;1.30;;
64571;SDS011;51155;51.984;21.208;2023-02-03T01:05:30;2.30;;;1.20;;
64571;SDS011;51155;51.984;21.208;2023-02-03T01:08:03;2.40;;;1.10;;
64571;SDS011;51155;51.984;21.208;2023-02-03T01:10:37;2.30;;;1.10;;
64571;SDS011;51155;51.984;21.208;2023-02-03T01:13:09;2.60;;;0.80;;
64571;SDS011;51155;51.984;21.208;2023-02-03T01:15:46;2.60;;;1.30;;
64571;SDS011;51155;51.984;21.208;2023-02-03T01:18:18;2.80;;;1.60;;
64571;SDS011;51155;51.984;21.208;2023-02-03T01:20:51;2.10;;;1.20;;
64571;SDS011;51155;51.984;21.208;2023-02-03T01:23:23;2.60;;;0.90;;
64571;SDS011;51155;51.984;21.208;2023-02-03T01:25:55;2.90;;;1.10;;
64571;SDS011;51155;51.984;21.208;2023-02-03T01:28:29;1.50;;;0.90;;
64571;SDS011;51155;51.984;21.208;2023-02-03T01:31:13;3.00;;;1.00;;
64571;SDS011;51155;51.984;21.208;2023-02-03T01:33:45;1.90;;;1.20;;
64571;SDS011;51155;51.984;21.208;2023-02-03T01:36:21;1.70;;;1.00;;
64571;SDS011;51155;51.984;21.208;2023-02-03T01:38:53;2.10;;;1.30;;
64571;SDS011;51155;51.984;21.208;2023-02-03T01:41:28;2.10;;;1.10;;
64571;SDS011;51155;51.984;21.208;2023-02-03T01:44:01;1.40;;;0.90;;
64571;SDS011;51155;51.984;21.208;2023-02-03T01:46:38;1.70;;;1.00;;
64571;SDS011;51155;51.984;21.208;2023-02-03T01:49:16;2.50;;;1.00;;
64571;SDS011;51155;51.984;21.208;2023-02-03T01:51:49;1.40;;;0.90;;
64571;SDS011;51155;51.984;21.208;2023-02-03T01:54:35;1.50;;;0.90;;
64571;SDS011;51155;51.984;21.208;2023-02-03T01:57:14;2.20;;;0.90;;
64571;SDS011;51155;51.984;21.208;2023-02-03T01:59:48;1.80;;;0.90;;
64571;SDS011;51155;51.984;21.208;2023-02-03T02:02:21;1.80;;;0.90;;
64571;SDS011;51155;51.984;21.208;2023-02-03T02:08:06;2.20;;;0.90;;
64571;SDS011;51155;51.984;21.208;2023-02-03T02:10:39;2.00;;;1.10;;
64571;SDS011;51155;51.984;21.208;2023-02-03T02:13:11;1.80;;;0.80;;
64571;SDS011;51155;51.984;21.208;2023-02-03T02:24:10;2.10;;;1.20;;
64571;SDS011;51155;51.984;21.208;2023-02-03T02:43:17;2.30;;;1.10;;
64571;SDS011;51155;51.984;21.208;2023-02-03T02:46:00;1.90;;;0.90;;
64571;SDS011;51155;51.984;21.208;2023-02-03T02:49:34;2.50;;;1.20;;
64571;SDS011;51155;51.984;21.208;2023-02-03T02:52:00;2.10;;;1.00;;
64571;SDS011;51155;51.984;21.208;2023-02-03T02:54:36;2.40;;;0.90;;
64571;SDS011;51155;51.984;21.208;2023-02-03T02:57:10;1.50;;;0.90;;
64571;SDS011;51155;51.984;21.208;2023-02-03T02:59:44;2.00;;;1.00;;
64571;SDS011;51155;51.984;21.208;2023-02-03T03:02:17;1.70;;;1.10;;
64571;SDS011;51155;51.984;21.208;2023-02-03T03:04:49;1.70;;;1.00;;
64571;SDS011;51155;51.984;21.208;2023-02-03T03:07:23;1.70;;;1.00;;
64571;SDS011;51155;51.984;21.208;2023-02-03T03:10:00;1.70;;;1.10;;
64571;SDS011;51155;51.984;21.208;2023-02-03T03:12:34;2.40;;;1.00;;
64571;SDS011;51155;51.984;21.208;2023-02-03T03:15:13;1.10;;;0.80;;
64571;SDS011;51155;51.984;21.208;2023-02-03T03:17:59;1.90;;;0.90;;
64571;SDS011;51155;51.984;21.208;2023-02-03T03:20:32;2.70;;;0.90;;
64571;SDS011;51155;51.984;21.208;2023-02-03T03:23:10;1.20;;;0.80;;
64571;SDS011;51155;51.984;21.208;2023-02-03T03:25:48;1.40;;;0.80;;
64571;SDS011;51155;51.984;21.208;2023-02-03T03:28:26;2.10;;;1.00;;
64571;SDS011;51155;51.984;21.208;2023-02-03T03:30:58;2.40;;;1.30;;
64571;SDS011;51155;51.984;21.208;2023-02-03T03:33:31;1.80;;;1.10;;
64571;SDS011;51155;51.984;21.208;2023-02-03T03:39:21;1.40;;;0.70;;
64571;SDS011;51155;51.984;21.208;2023-02-03T03:42:20;1.90;;;0.90;;
64571;SDS011;51155;51.984;21.208;2023-02-03T03:44:59;1.20;;;0.70;;
64571;SDS011;51155;51.984;21.208;2023-02-03T03:47:43;1.20;;;0.70;;
64571;SDS011;51155;51.984;21.208;2023-02-03T03:50:19;1.90;;;0.90;;
64571;SDS011;51155;51.984;21.208;2023-02-03T03:52:52;1.90;;;0.90;;
64571;SDS011;51155;51.984;21.208;2023-02-03T03:55:29;0.90;;;0.60;;
64571;SDS011;51155;51.984;21.208;2023-02-03T03:58:08;1.40;;;0.80;;
64571;SDS011;51155;51.984;21.208;2023-02-03T04:00:41;2.30;;;1.10;;
64571;SDS011;51155;51.984;21.208;2023-02-03T04:03:20;1.90;;;0.70;;
64571;SDS011;51155;51.984;21.208;2023-02-03T04:05:54;1.60;;;0.80;;
64571;SDS011;51155;51.984;21.208;2023-02-03T04:08:26;2.00;;;1.10;;
64571;SDS011;51155;51.984;21.208;2023-02-03T04:10:57;1.60;;;0.90;;
64571;SDS011;51155;51.984;21.208;2023-02-03T04:13:30;2.30;;;1.10;;
64571;SDS011;51155;51.984;21.208;2023-02-03T04:16:02;1.00;;;0.80;;
64571;SDS011;51155;51.984;21.208;2023-02-03T04:18:34;1.10;;;0.70;;
64571;SDS011;51155;51.984;21.208;2023-02-03T04:21:05;1.30;;;0.80;;
64571;SDS011;51155;51.984;21.208;2023-02-03T04:23:38;1.20;;;0.70;;
64571;SDS011;51155;51.984;21.208;2023-02-03T04:26:10;1.00;;;0.80;;
64571;SDS011;51155;51.984;21.208;2023-02-03T04:28:42;2.20;;;0.90;;
64571;SDS011;51155;51.984;21.208;2023-02-03T04:31:15;1.30;;;0.70;;
64571;SDS011;51155;51.984;21.208;2023-02-03T04:33:47;0.90;;;0.50;;
64571;SDS011;51155;51.984;21.208;2023-02-03T04:36:19;1.10;;;0.80;;
64571;SDS011;51155;51.984;21.208;2023-02-03T04:38:51;1.40;;;0.70;;
64571;SDS011;51155;51.984;21.208;2023-02-03T04:41:23;1.90;;;0.90;;
64571;SDS011;51155;51.984;21.208;2023-02-03T04:43:55;1.30;;;0.70;;
64571;SDS011;51155;51.984;21.208;2023-02-03T04:46:27;1.70;;;0.80;;
64571;SDS011;51155;51.984;21.208;2023-02-03T04:48:59;1.30;;;1.00;;
64571;SDS011;51155;51.984;21.208;2023-02-03T04:51:31;1.70;;;0.90;;
64571;SDS011;51155;51.984;21.208;2023-02-03T04:54:03;2.10;;;0.70;;
64571;SDS011;51155;51.984;21.208;2023-02-03T04:56:35;1.20;;;0.60;;
64571;SDS011;51155;51.984;21.208;2023-02-03T04:59:07;1.20;;;0.70;;
64571;SDS011;51155;51.984;21.208;2023-02-03T05:01:39;2.10;;;0.90;;
64571;SDS011;51155;51.984;21.208;2023-02-03T05:04:11;1.50;;;0.70;;
64571;SDS011;51155;51.984;21.208;2023-02-03T05:06:43;1.60;;;0.80;;
64571;SDS011;51155;51.984;21.208;2023-02-03T05:09:15;1.40;;;0.90;;
64571;SDS011;51155;51.984;21.208;2023-02-03T05:11:47;1.20;;;0.70;;
64571;SDS011;51155;51.984;21.208;2023-02-03T05:14:19;2.20;;;0.90;;
64571;SDS011;51155;51.984;21.208;2023-02-03T05:16:51;2.50;;;1.10;;
64571;SDS011;51155;51.984;21.208;2023-02-03T05:19:23;1.50;;;0.90;;
64571;SDS011;51155;51.984;21.208;2023-02-03T05:21:55;1.90;;;0.90;;
64571;SDS011;51155;51.984;21.208;2023-02-03T05:24:27;1.60;;;0.90;;
64571;SDS011;51155;51.984;21.208;2023-02-03T05:26:59;2.20;;;0.90;;
64571;SDS011;51155;51.984;21.208;2023-02-03T05:29:30;1.60;;;0.90;;
64571;SDS011;51155;51.984;21.208;2023-02-03T05:32:02;1.70;;;0.90;;
64571;SDS011;51155;51.984;21.208;2023-02-03T05:34:35;2.30;;;1.20;;
64571;SDS011;51155;51.984;21.208;2023-02-03T05:37:07;2.00;;;1.10;;
64571;SDS011;51155;51.984;21.208;2023-02-03T05:39:39;2.60;;;1.10;;
64571;SDS011;51155;51.984;21.208;2023-02-03T05:42:10;2.30;;;0.80;;
64571;SDS011;51155;51.984;21.208;2023-02-03T05:44:42;2.30;;;1.10;;
64571;SDS011;51155;51.984;21.208;2023-02-03T05:47:14;1.60;;;0.90;;
64571;SDS011;51155;51.984;21.208;2023-02-03T05:49:46;2.10;;;1.10;;
64571;SDS011;51155;51.984;21.208;2023-02-03T05:52:18;2.20;;;1.30;;
64571;SDS011;51155;51.984;21.208;2023-02-03T05:54:50;2.50;;;1.30;;
64571;SDS011;51155;51.984;21.208;2023-02-03T05:57:22;2.20;;;1.20;;
64571;SDS011;51155;51.984;21.208;2023-02-03T05:59:54;2.50;;;1.50;;
64571;SDS011;51155;51.984;21.208;2023-02-03T06:02:26;2.50;;;1.20;;
64571;SDS011;51155;51.984;21.208;2023-02-03T06:04:57;2.30;;;1.20;;
64571;SDS011;51155;51.984;21.208;2023-02-03T06:07:29;2.20;;;1.20;;
64571;SDS011;51155;51.984;21.208;2023-02-03T06:10:01;2.40;;;1.10;;
64571;SDS011;51155;51.984;21.208;2023-02-03T06:12:33;2.30;;;1.10;;
64571;SDS011;51155;51.984;21.208;2023-02-03T06:15:06;1.50;;;0.90;;
64571;SDS011;51155;51.984;21.208;2023-02-03T06:17:38;2.10;;;1.00;;
64571;SDS011;51155;51.984;21.208;2023-02-03T06:20:11;2.30;;;1.40;;
64571;SDS011;51155;51.984;21.208;2023-02-03T06:22:44;2.20;;;1.40;;
64571;SDS011;51155;51.984;21.208;2023-02-03T06:25:16;1.60;;;1.00;;
64571;SDS011;51155;51.984;21.208;2023-02-03T06:27:49;2.10;;;1.20;;
64571;SDS011;51155;51.984;21.208;2023-02-03T06:30:21;2.00;;;1.20;;
64571;SDS011;51155;51.984;21.208;2023-02-03T06:32:54;2.90;;;1.30;;
64571;SDS011;51155;51.984;21.208;2023-02-03T06:35:26;2.00;;;1.30;;
64571;SDS011;51155;51.984;21.208;2023-02-03T06:37:58;3.10;;;1.50;;
64571;SDS011;51155;51.984;21.208;2023-02-03T06:40:30;3.50;;;1.60;;
64571;SDS011;51155;51.984;21.208;2023-02-03T06:43:02;2.90;;;1.20;;
64571;SDS011;51155;51.984;21.208;2023-02-03T06:45:34;3.00;;;1.50;;
64571;SDS011;51155;51.984;21.208;2023-02-03T06:48:06;4.00;;;1.40;;
64571;SDS011;51155;51.984;21.208;2023-02-03T06:50:38;3.70;;;1.60;;
64571;SDS011;51155;51.984;21.208;2023-02-03T06:53:10;3.20;;;1.40;;
64571;SDS011;51155;51.984;21.208;2023-02-03T06:55:42;3.00;;;1.60;;
64571;SDS011;51155;51.984;21.208;2023-02-03T06:58:14;4.60;;;2.00;;
64571;SDS011;51155;51.984;21.208;2023-02-03T07:00:46;3.20;;;1.60;;
64571;SDS011;51155;51.984;21.208;2023-02-03T07:03:18;3.50;;;1.70;;
64571;SDS011;51155;51.984;21.208;2023-02-03T07:05:50;3.30;;;1.60;;
64571;SDS011;51155;51.984;21.208;2023-02-03T07:08:22;3.20;;;1.90;;
64571;SDS011;51155;51.984;21.208;2023-02-03T07:10:54;4.80;;;2.10;;
64571;SDS011;51155;51.984;21.208;2023-02-03T07:13:26;4.50;;;1.90;;
64571;SDS011;51155;51.984;21.208;2023-02-03T07:15:58;3.90;;;2.00;;
64571;SDS011;51155;51.984;21.208;2023-02-03T07:18:30;2.70;;;1.70;;
64571;SDS011;51155;51.984;21.208;2023-02-03T07:21:18;3.40;;;1.90;;
64571;SDS011;51155;51.984;21.208;2023-02-03T07:23:50;4.40;;;2.50;;
64571;SDS011;51155;51.984;21.208;2023-02-03T07:26:22;4.40;;;2.40;;
64571;SDS011;51155;51.984;21.208;2023-02-03T07:28:55;2.90;;;1.90;;
64571;SDS011;51155;51.984;21.208;2023-02-03T07:31:30;4.00;;;2.40;;
64571;SDS011;51155;51.984;21.208;2023-02-03T07:34:03;3.60;;;2.00;;
64571;SDS011;51155;51.984;21.208;2023-02-03T07:36:35;3.40;;;2.20;;
64571;SDS011;51155;51.984;21.208;2023-02-03T07:39:07;3.60;;;2.00;;
64571;SDS011;51155;51.984;21.208;2023-02-03T07:41:39;3.70;;;2.20;;
64571;SDS011;51155;51.984;21.208;2023-02-03T07:44:11;3.60;;;2.00;;
64571;SDS011;51155;51.984;21.208;2023-02-03T07:46:43;4.50;;;2.30;;
64571;SDS011;51155;51.984;21.208;2023-02-03T07:51:48;3.50;;;2.20;;
64571;SDS011;51155;51.984;21.208;2023-02-03T07:54:20;3.70;;;2.10;;
64571;SDS011;51155;51.984;21.208;2023-02-03T07:56:51;3.90;;;2.10;;
64571;SDS011;51155;51.984;21.208;2023-02-03T07:59:24;3.60;;;2.10;;
64571;SDS011;51155;51.984;21.208;2023-02-03T08:01:59;4.10;;;2.50;;
64571;SDS011;51155;51.984;21.208;2023-02-03T08:04:31;3.90;;;2.00;;
64571;SDS011;51155;51.984;21.208;2023-02-03T08:07:03;4.70;;;2.60;;
64571;SDS011;51155;51.984;21.208;2023-02-03T08:09:35;4.70;;;2.50;;
64571;SDS011;51155;51.984;21.208;2023-02-03T08:12:07;3.50;;;2.30;;
64571;SDS011;51155;51.984;21.208;2023-02-03T08:14:39;3.20;;;2.20;;
64571;SDS011;51155;51.984;21.208;2023-02-03T08:17:11;2.90;;;2.00;;
64571;SDS011;51155;51.984;21.208;2023-02-03T08:19:43;3.90;;;2.30;;
64571;SDS011;51155;51.984;21.208;2023-02-03T08:22:15;4.40;;;2.30;;
64571;SDS011;51155;51.984;21.208;2023-02-03T08:24:47;3.60;;;2.20;;
64571;SDS011;51155;51.984;21.208;2023-02-03T08:27:20;4.50;;;2.60;;
64571;SDS011;51155;51.984;21.208;2023-02-03T08:29:53;3.90;;;2.20;;
64571;SDS011;51155;51.984;21.208;2023-02-03T08:32:25;3.20;;;2.20;;
64571;SDS011;51155;51.984;21.208;2023-02-03T08:34:57;4.70;;;2.00;;
64571;SDS011;51155;51.984;21.208;2023-02-03T08:37:29;3.40;;;2.10;;
64571;SDS011;51155;51.984;21.208;2023-02-03T08:40:04;3.90;;;2.40;;
64571;SDS011;51155;51.984;21.208;2023-02-03T08:42:36;3.00;;;1.80;;
64571;SDS011;51155;51.984;21.208;2023-02-03T08:45:09;3.50;;;2.30;;
64571;SDS011;51155;51.984;21.208;2023-02-03T08:47:41;3.80;;;2.00;;
64571;SDS011;51155;51.984;21.208;2023-02-03T08:50:13;3.40;;;2.00;;
64571;SDS011;51155;51.984;21.208;2023-02-03T08:52:45;3.40;;;2.00;;
64571;SDS011;51155;51.984;21.208;2023-02-03T08:55:17;3.30;;;2.10;;
64571;SDS011;51155;51.984;21.208;2023-02-03T08:57:49;3.40;;;2.20;;
64571;SDS011;51155;51.984;21.208;2023-02-03T09:00:21;4.00;;;2.20;;
64571;SDS011;51155;51.984;21.208;2023-02-03T09:02:53;3.10;;;2.10;;
64571;SDS011;51155;51.984;21.208;2023-02-03T09:05:25;4.20;;;2.20;;
64571;SDS011;51155;51.984;21.208;2023-02-03T09:07:57;3.80;;;2.20;;
64571;SDS011;51155;51.984;21.208;2023-02-03T09:10:29;4.00;;;2.40;;
64571;SDS011;51155;51.984;21.208;2023-02-03T09:13:01;4.00;;;2.40;;
64571;SDS011;51155;51.984;21.208;2023-02-03T09:15:33;3.20;;;2.00;;
64571;SDS011;51155;51.984;21.208;2023-02-03T09:18:05;3.50;;;1.90;;
64571;SDS011;51155;51.984;21.208;2023-02-03T09:20:37;2.70;;;2.00;;
64571;SDS011;51155;51.984;21.208;2023-02-03T09:23:09;3.10;;;2.20;;
64571;SDS011;51155;51.984;21.208;2023-02-03T09:25:41;3.80;;;2.00;;
64571;SDS011;51155;51.984;21.208;2023-02-03T09:28:18;2.90;;;1.90;;
64571;SDS011;51155;51.984;21.208;2023-02-03T09:30:50;2.80;;;1.90;;
64571;SDS011;51155;51.984;21.208;2023-02-03T09:33:22;3.00;;;2.00;;
64571;SDS011;51155;51.984;21.208;2023-02-03T09:35:55;3.20;;;2.30;;
64571;SDS011;51155;51.984;21.208;2023-02-03T09:38:27;3.40;;;1.70;;
64571;SDS011;51155;51.984;21.208;2023-02-03T09:41:11;3.60;;;2.10;;
64571;SDS011;51155;51.984;21.208;2023-02-03T09:46:27;3.30;;;2.10;;
64571;SDS011;51155;51.984;21.208;2023-02-03T09:49:40;2.50;;;1.80;;
64571;SDS011;51155;51.984;21.208;2023-02-03T09:55:09;3.30;;;1.80;;
64571;SDS011;51155;51.984;21.208;2023-02-03T09:58:14;3.00;;;1.90;;
64571;SDS011;51155;51.984;21.208;2023-02-03T10:00:55;2.80;;;1.90;;
64571;SDS011;51155;51.984;21.208;2023-02-03T10:03:38;3.30;;;1.90;;
64571;SDS011;51155;51.984;21.208;2023-02-03T10:06:40;3.30;;;2.30;;
64571;SDS011;51155;51.984;21.208;2023-02-03T10:12:35;3.10;;;2.00;;
64571;SDS011;51155;51.984;21.208;2023-02-03T10:18:08;3.40;;;2.00;;
64571;SDS011;51155;51.984;21.208;2023-02-03T10:20:44;3.10;;;1.90;;
64571;SDS011;51155;51.984;21.208;2023-02-03T10:23:30;3.10;;;1.90;;
64571;SDS011;51155;51.984;21.208;2023-02-03T10:26:05;3.50;;;2.00;;
64571;SDS011;51155;51.984;21.208;2023-02-03T10:28:51;2.50;;;1.90;;
64571;SDS011;51155;51.984;21.208;2023-02-03T10:31:32;3.50;;;2.30;;
64571;SDS011;51155;51.984;21.208;2023-02-03T10:34:13;3.00;;;2.00;;
64571;SDS011;51155;51.984;21.208;2023-02-03T10:36:57;3.60;;;2.00;;
64571;SDS011;51155;51.984;21.208;2023-02-03T10:39:42;3.00;;;1.80;;
64571;SDS011;51155;51.984;21.208;2023-02-03T10:42:15;3.00;;;2.00;;
64571;SDS011;51155;51.984;21.208;2023-02-03T10:44:56;2.00;;;1.40;;
64571;SDS011;51155;51.984;21.208;2023-02-03T10:47:41;2.40;;;1.90;;
64571;SDS011;51155;51.984;21.208;2023-02-03T10:50:19;3.20;;;2.00;;
64571;SDS011;51155;51.984;21.208;2023-02-03T10:52:51;4.80;;;2.20;;
64571;SDS011;51155;51.984;21.208;2023-02-03T10:55:44;2.20;;;1.70;;
64571;SDS011;51155;51.984;21.208;2023-02-03T10:58:24;3.20;;;1.90;;
64571;SDS011;51155;51.984;21.208;2023-02-03T11:01:05;2.90;;;1.80;;
64571;SDS011;51155;51.984;21.208;2023-02-03T11:03:41;3.40;;;1.80;;
64571;SDS011;51155;51.984;21.208;2023-02-03T11:06:15;3.10;;;2.20;;
64571;SDS011;51155;51.984;21.208;2023-02-03T11:08:49;3.20;;;1.80;;
64571;SDS011;51155;51.984;21.208;2023-02-03T11:11:29;3.10;;;1.90;;
64571;SDS011;51155;51.984;21.208;2023-02-03T11:16:35;3.00;;;1.90;;
64571;SDS011;51155;51.984;21.208;2023-02-03T11:19:20;2.60;;;1.50;;
64571;SDS011;51155;51.984;21.208;2023-02-03T11:21:53;2.20;;;1.60;;
64571;SDS011;51155;51.984;21.208;2023-02-03T11:24:29;2.90;;;1.80;;
64571;SDS011;51155;51.984;21.208;2023-02-03T11:29:39;2.90;;;1.80;;
64571;SDS011;51155;51.984;21.208;2023-02-03T11:32:19;2.10;;;1.30;;
64571;SDS011;51155;51.984;21.208;2023-02-03T11:35:02;2.40;;;1.80;;
64571;SDS011;51155;51.984;21.208;2023-02-03T11:37:37;2.60;;;1.60;;
64571;SDS011;51155;51.984;21.208;2023-02-03T11:45:43;3.80;;;2.20;;
64571;SDS011;51155;51.984;21.208;2023-02-03T11:48:31;3.00;;;1.80;;
64571;SDS011;51155;51.984;21.208;2023-02-03T12:08:07;2.70;;;1.70;;
64571;SDS011;51155;51.984;21.208;2023-02-03T12:11:10;3.40;;;1.70;;
64571;SDS011;51155;51.984;21.208;2023-02-03T12:30:31;3.10;;;2.00;;
64571;SDS011;51155;51.984;21.208;2023-02-03T12:33:13;3.30;;;1.80;;
64571;SDS011;51155;51.984;21.208;2023-02-03T12:38:58;3.40;;;1.80;;
64571;SDS011;51155;51.984;21.208;2023-02-03T12:41:40;3.40;;;1.70;;
64571;SDS011;51155;51.984;21.208;2023-02-03T12:44:24;3.90;;;1.80;;
64571;SDS011;51155;51.984;21.208;2023-02-03T12:47:10;3.60;;;1.70;;
64571;SDS011;51155;51.984;21.208;2023-02-03T12:49:49;4.10;;;1.90;;
64571;SDS011;51155;51.984;21.208;2023-02-03T12:58:04;3.30;;;2.00;;
64571;SDS011;51155;51.984;21.208;2023-02-03T13:01:17;3.50;;;1.90;;
64571;SDS011;51155;51.984;21.208;2023-02-03T13:03:59;3.60;;;1.90;;
64571;SDS011;51155;51.984;21.208;2023-02-03T13:06:48;3.70;;;1.80;;
64571;SDS011;51155;51.984;21.208;2023-02-03T13:14:45;2.50;;;1.70;;
64571;SDS011;51155;51.984;21.208;2023-02-03T13:17:51;3.10;;;1.60;;
64571;SDS011;51155;51.984;21.208;2023-02-03T13:20:23;4.00;;;1.70;;
64571;SDS011;51155;51.984;21.208;2023-02-03T13:22:56;3.10;;;1.80;;
64571;SDS011;51155;51.984;21.208;2023-02-03T13:42:27;3.20;;;1.70;;
64571;SDS011;51155;51.984;21.208;2023-02-03T13:47:48;3.10;;;1.70;;
64571;SDS011;51155;51.984;21.208;2023-02-03T13:50:27;3.30;;;1.70;;
64571;SDS011;51155;51.984;21.208;2023-02-03T13:53:26;3.40;;;1.90;;
64571;SDS011;51155;51.984;21.208;2023-02-03T13:56:01;3.20;;;1.60;;
64571;SDS011;51155;51.984;21.208;2023-02-03T13:58:36;3.20;;;1.60;;
64571;SDS011;51155;51.984;21.208;2023-02-03T14:01:32;3.20;;;1.80;;
64571;SDS011;51155;51.984;21.208;2023-02-03T14:04:06;3.40;;;1.50;;
64571;SDS011;51155;51.984;21.208;2023-02-03T14:25:47;2.80;;;1.70;;
64571;SDS011;51155;51.984;21.208;2023-02-03T14:28:35;3.30;;;1.70;;
64571;SDS011;51155;51.984;21.208;2023-02-03T14:31:23;5.00;;;2.10;;
64571;SDS011;51155;51.984;21.208;2023-02-03T14:34:08;4.10;;;1.90;;
64571;SDS011;51155;51.984;21.208;2023-02-03T14:42:16;3.80;;;1.90;;
64571;SDS011;51155;51.984;21.208;2023-02-03T14:56:08;4.70;;;2.00;;
64571;SDS011;51155;51.984;21.208;2023-02-03T14:58:51;4.70;;;1.70;;
64571;SDS011;51155;51.984;21.208;2023-02-03T15:04:20;3.90;;;2.00;;
64571;SDS011;51155;51.984;21.208;2023-02-03T15:06:53;3.80;;;1.80;;
64571;SDS011;51155;51.984;21.208;2023-02-03T15:09:41;3.10;;;1.70;;
64571;SDS011;51155;51.984;21.208;2023-02-03T15:12:24;3.80;;;2.10;;
64571;SDS011;51155;51.984;21.208;2023-02-03T15:15:29;5.00;;;2.20;;
64571;SDS011;51155;51.984;21.208;2023-02-03T15:18:19;4.30;;;1.90;;
64571;SDS011;51155;51.984;21.208;2023-02-03T15:20:53;3.30;;;1.80;;
64571;SDS011;51155;51.984;21.208;2023-02-03T15:23:35;3.50;;;2.00;;
64571;SDS011;51155;51.984;21.208;2023-02-03T15:26:23;3.70;;;1.90;;
64571;SDS011;51155;51.984;21.208;2023-02-03T15:29:00;4.50;;;2.30;;
64571;SDS011;51155;51.984;21.208;2023-02-03T15:31:42;3.60;;;2.00;;
64571;SDS011;51155;51.984;21.208;2023-02-03T15:36:50;3.30;;;1.70;;
64571;SDS011;51155;51.984;21.208;2023-02-03T15:42:05;4.50;;;2.10;;
64571;SDS011;51155;51.984;21.208;2023-02-03T15:44:42;4.10;;;2.00;;
64571;SDS011;51155;51.984;21.208;2023-02-03T15:47:38;3.10;;;1.80;;
64571;SDS011;51155;51.984;21.208;2023-02-03T15:50:26;3.30;;;1.80;;
64571;SDS011;51155;51.984;21.208;2023-02-03T15:53:08;4.60;;;1.90;;
64571;SDS011;51155;51.984;21.208;2023-02-03T15:55:45;4.00;;;1.80;;
64571;SDS011;51155;51.984;21.208;2023-02-03T15:58:23;4.10;;;2.10;;
64571;SDS011;51155;51.984;21.208;2023-02-03T16:01:04;3.20;;;1.80;;
64571;SDS011;51155;51.984;21.208;2023-02-03T16:03:41;3.20;;;2.00;;
64571;SDS011;51155;51.984;21.208;2023-02-03T16:06:17;3.70;;;1.90;;
64571;SDS011;51155;51.984;21.208;2023-02-03T16:08:50;3.30;;;2.00;;
64571;SDS011;51155;51.984;21.208;2023-02-03T16:11:34;5.20;;;2.10;;
64571;SDS011;51155;51.984;21.208;2023-02-03T16:14:10;3.60;;;1.90;;
64571;SDS011;51155;51.984;21.208;2023-02-03T16:16:47;3.40;;;1.80;;
64571;SDS011;51155;51.984;21.208;2023-02-03T16:22:38;3.30;;;1.80;;
64571;SDS011;51155;51.984;21.208;2023-02-03T16:25:16;4.50;;;2.30;;
64571;SDS011;51155;51.984;21.208;2023-02-03T16:28:00;3.40;;;2.10;;
64571;SDS011;51155;51.984;21.208;2023-02-03T16:31:07;3.30;;;2.00;;
64571;SDS011;51155;51.984;21.208;2023-02-03T16:34:01;4.00;;;1.90;;
64571;SDS011;51155;51.984;21.208;2023-02-03T16:37:10;2.60;;;1.60;;
64571;SDS011;51155;51.984;21.208;2023-02-03T16:40:01;3.80;;;2.00;;
64571;SDS011;51155;51.984;21.208;2023-02-03T16:42:51;3.70;;;1.90;;
64571;SDS011;51155;51.984;21.208;2023-02-03T16:45:42;3.80;;;2.00;;
64571;SDS011;51155;51.984;21.208;2023-02-03T16:48:33;4.50;;;2.30;;
64571;SDS011;51155;51.984;21.208;2023-02-03T16:51:24;4.50;;;2.10;;
64571;SDS011;51155;51.984;21.208;2023-02-03T16:53:56;4.50;;;1.90;;
64571;SDS011;51155;51.984;21.208;2023-02-03T16:56:28;3.80;;;2.00;;
64571;SDS011;51155;51.984;21.208;2023-02-03T16:59:00;3.60;;;1.90;;
64571;SDS011;51155;51.984;21.208;2023-02-03T17:01:32;5.00;;;1.90;;
64571;SDS011;51155;51.984;21.208;2023-02-03T17:04:04;3.50;;;2.20;;
64571;SDS011;51155;51.984;21.208;2023-02-03T17:06:37;4.20;;;2.10;;
64571;SDS011;51155;51.984;21.208;2023-02-03T17:09:10;3.90;;;2.40;;
64571;SDS011;51155;51.984;21.208;2023-02-03T17:11:42;2.90;;;1.90;;
64571;SDS011;51155;51.984;21.208;2023-02-03T17:14:14;5.00;;;2.00;;
64571;SDS011;51155;51.984;21.208;2023-02-03T17:16:46;4.80;;;2.20;;
64571;SDS011;51155;51.984;21.208;2023-02-03T17:19:18;4.70;;;2.10;;
64571;SDS011;51155;51.984;21.208;2023-02-03T17:21:50;3.10;;;1.80;;
64571;SDS011;51155;51.984;21.208;2023-02-03T17:24:23;4.40;;;2.00;;
64571;SDS011;51155;51.984;21.208;2023-02-03T17:26:55;3.40;;;2.10;;
64571;SDS011;51155;51.984;21.208;2023-02-03T17:29:29;3.60;;;1.90;;
64571;SDS011;51155;51.984;21.208;2023-02-03T17:32:01;3.60;;;2.00;;
64571;SDS011;51155;51.984;21.208;2023-02-03T17:34:33;3.10;;;2.00;;
64571;SDS011;51155;51.984;21.208;2023-02-03T17:37:05;4.80;;;2.50;;
64571;SDS011;51155;51.984;21.208;2023-02-03T17:39:37;3.70;;;1.90;;
64571;SDS011;51155;51.984;21.208;2023-02-03T17:42:26;4.00;;;1.90;;
64571;SDS011;51155;51.984;21.208;2023-02-03T17:45:16;3.20;;;1.90;;
64571;SDS011;51155;51.984;21.208;2023-02-03T17:48:05;4.20;;;2.10;;
64571;SDS011;51155;51.984;21.208;2023-02-03T17:51:13;4.10;;;2.00;;
64571;SDS011;51155;51.984;21.208;2023-02-03T17:54:02;5.00;;;2.20;;
64571;SDS011;51155;51.984;21.208;2023-02-03T17:56:36;3.80;;;2.20;;
64571;SDS011;51155;51.984;21.208;2023-02-03T17:59:08;5.50;;;2.20;;
64571;SDS011;51155;51.984;21.208;2023-02-03T18:01:40;3.70;;;2.30;;
64571;SDS011;51155;51.984;21.208;2023-02-03T18:04:13;4.00;;;2.00;;
64571;SDS011;51155;51.984;21.208;2023-02-03T18:06:45;3.10;;;1.90;;
64571;SDS011;51155;51.984;21.208;2023-02-03T18:09:17;4.20;;;2.50;;
64571;SDS011;51155;51.984;21.208;2023-02-03T18:11:49;3.60;;;2.00;;
64571;SDS011;51155;51.984;21.208;2023-02-03T18:14:21;4.10;;;2.10;;
64571;SDS011;51155;51.984;21.208;2023-02-03T18:16:52;4.20;;;2.30;;
64571;SDS011;51155;51.984;21.208;2023-02-03T18:19:24;3.30;;;2.00;;